Time;durP1;ratioP1;P1;durP2;ratioP2;P2;SDS_P1;SDS_P2;PMS_P1;PMS_P2;Temp;Humidity;BMP_temperature;BMP_pressure;BME280_temperature;BME280_humidity;BME280_pressure;Samples;Min_cycle;Max_cycle;Signal;HPM_P1;HPM_P2
2022/11/23 00:01:47;;;;;;;5.47;3.13;;;;;;;2.60;73.31;98982.22;6079738;23;20023;-78
2022/11/23 00:04:13;;;;;;;4.63;2.67;;;;;;;2.41;73.09;98982.88;6080893;23;20019;-77
2022/11/23 00:06:40;;;;;;;4.47;2.55;;;;;;;2.43;73.13;98979.47;6052445;23;20022;-77
2022/11/23 00:09:06;;;;;;;4.88;3.15;;;;;;;2.23;73.31;98957.00;6026523;23;20109;-80
2022/11/23 00:11:34;;;;;;;6.07;3.33;;;;;;;2.16;74.52;98937.25;6021647;23;20026;-78
2022/11/23 00:14:00;;;;;;;6.13;2.88;;;;;;;2.48;74.46;98983.81;6070328;23;20022;-76
2022/11/23 00:16:29;;;;;;;5.95;3.15;;;;;;;2.45;73.81;98982.94;6070990;23;20430;-80
2022/11/23 00:18:57;;;;;;;6.53;2.83;;;;;;;2.47;73.20;98988.94;6044863;23;20026;-80
2022/11/23 00:21:24;;;;;;;5.53;3.30;;;;;;;2.23;74.00;98968.13;6045338;23;20022;-80
2022/11/23 00:23:51;;;;;;;5.50;2.88;;;;;;;2.22;74.08;98957.84;6084120;23;20034;-80
2022/11/23 00:26:18;;;;;;;6.78;3.17;;;;;;;2.57;74.39;98985.63;6050700;23;20055;-77
2022/11/23 00:28:44;;;;;;;8.75;2.85;;;;;;;2.45;74.04;98970.94;6048045;23;20019;-80
2022/11/23 00:31:13;;;;;;;4.38;2.67;;;;;;;2.55;73.07;98985.59;6070493;23;20054;-78
2022/11/23 00:33:40;;;;;;;4.55;2.25;;;;;;;2.54;73.86;98980.44;6068403;23;20453;-79
2022/11/23 00:36:14;;;;;;;5.32;3.00;;;;;;;2.50;73.44;98963.28;6045433;23;20093;-81
2022/11/23 00:38:42;;;;;;;6.97;2.60;;;;;;;2.55;74.54;98959.03;6044864;23;20022;-80
2022/11/23 00:41:20;;;;;;;4.05;2.70;;;;;;;2.74;73.99;98978.09;6068262;23;20030;-80
2022/11/23 00:43:46;;;;;;;4.38;2.05;;;;;;;2.61;74.43;98942.84;6019882;23;20106;-80
2022/11/23 00:46:13;;;;;;;4.30;1.88;;;;;;;2.78;73.60;98973.81;6048830;23;20144;-79
2022/11/23 00:48:42;;;;;;;2.83;1.70;;;;;;;2.76;72.68;98968.69;6088270;23;20031;-77
2022/11/23 00:51:11;;;;;;;2.67;1.80;;;;;;;2.88;74.00;98985.03;6048362;23;20066;-78
2022/11/23 00:53:39;;;;;;;2.53;1.80;;;;;;;2.88;73.54;98978.22;6068701;23;20046;-77
2022/11/23 00:56:05;;;;;;;2.38;1.45;;;;;;;2.89;73.48;98984.19;6070677;23;20046;-78
2022/11/23 00:58:32;;;;;;;2.15;1.75;;;;;;;2.83;72.92;98985.00;6045083;23;20042;-78
2022/11/23 01:01:10;;;;;;;2.20;1.50;;;;;;;2.72;73.38;98972.06;5997227;23;20057;-82
2022/11/23 01:03:39;;;;;;;1.95;1.30;;;;;;;2.76;73.85;98975.53;6069458;23;20025;-78
2022/11/23 01:06:07;;;;;;;1.88;1.35;;;;;;;2.86;73.94;98975.66;6019673;23;20022;-78
2022/11/23 01:08:34;;;;;;;2.05;1.40;;;;;;;2.87;73.58;98958.50;6043135;23;20019;-79
2022/11/23 01:11:02;;;;;;;1.85;1.35;;;;;;;2.97;73.57;98977.44;6045003;23;20019;-79
2022/11/23 01:13:29;;;;;;;2.40;1.40;;;;;;;2.64;73.03;98930.03;6047430;23;20050;-82
2022/11/23 01:15:56;;;;;;;2.15;1.30;;;;;;;2.76;72.98;98980.69;6069657;23;20022;-77
2022/11/23 01:18:23;;;;;;;2.00;1.40;;;;;;;2.52;72.00;98969.31;6044031;23;20526;-79
2022/11/23 01:20:49;;;;;;;2.10;1.17;;;;;;;2.44;73.36;98945.25;6067527;23;20427;-78
2022/11/23 01:23:15;;;;;;;2.30;1.20;;;;;;;2.45;73.17;98945.25;6042656;23;20015;-79
2022/11/23 01:25:41;;;;;;;1.77;1.23;;;;;;;2.58;73.49;98953.94;6067246;23;20033;-80
2022/11/23 01:28:08;;;;;;;1.98;1.15;;;;;;;2.82;73.55;98970.44;6043580;23;20027;-78
2022/11/23 01:30:35;;;;;;;1.98;1.50;;;;;;;2.77;73.74;98961.81;6091932;23;20365;-80
2022/11/23 01:33:02;;;;;;;3.22;1.80;;;;;;;2.94;73.37;98980.84;6069356;23;20022;-80
2022/11/23 01:35:28;;;;;;;3.15;1.48;;;;;;;2.81;72.20;98964.47;6068263;23;20022;-80
2022/11/23 01:37:54;;;;;;;2.05;1.58;;;;;;;2.87;72.92;98994.47;6075127;23;20025;-77
2022/11/23 01:40:21;;;;;;;2.42;1.65;;;;;;;2.47;72.27;98950.41;6074987;23;20073;-78
2022/11/23 01:43:00;;;;;;;2.85;1.55;;;;;;;2.33;72.76;98942.56;6073023;23;20025;-80
2022/11/23 01:45:39;;;;;;;2.42;1.77;;;;;;;2.52;71.96;98979.59;6071270;23;20023;-79
2022/11/23 01:48:13;;;;;;;2.72;1.50;;;;;;;2.68;73.39;98980.59;6085094;23;20029;-80
2022/11/23 01:50:41;;;;;;;2.60;1.70;;;;;;;2.74;73.20;98980.66;6089575;23;20018;-80
2022/11/23 01:53:07;;;;;;;2.33;1.58;;;;;;;2.73;73.39;98968.66;6098005;23;20204;-78
2022/11/23 01:55:33;;;;;;;3.47;1.80;;;;;;;2.71;73.08;98953.22;6072373;23;20018;-78
2022/11/23 01:58:01;;;;;;;4.07;1.40;;;;;;;2.39;73.27;98907.53;6074211;23;20025;-77
2022/11/23 02:00:27;;;;;;;3.15;1.90;;;;;;;2.70;73.12;98974.63;6071168;23;20025;-80
2022/11/23 02:02:57;;;;;;;2.80;1.60;;;;;;;2.69;72.78;98974.59;6070589;23;20022;-78
2022/11/23 02:05:31;;;;;;;2.58;1.38;;;;;;;2.51;72.75;98977.88;6070071;23;20019;-80
2022/11/23 02:07:59;;;;;;;2.08;1.65;;;;;;;2.52;73.34;98957.31;6069642;23;20018;-80
2022/11/23 02:10:26;;;;;;;2.58;1.50;;;;;;;2.55;73.12;98972.78;6098795;23;20338;-78
2022/11/23 02:12:53;;;;;;;1.80;1.30;;;;;;;2.54;73.93;98952.19;6071909;23;20030;-79
2022/11/23 02:15:40;;;;;;;2.38;1.58;;;;;;;2.68;73.77;98936.91;6062737;23;20080;-77
2022/11/23 02:18:15;;;;;;;4.18;2.30;;;;;;;2.86;73.25;98954.22;6114919;23;20029;-77
2022/11/23 02:20:42;;;;;;;32.13;14.40;;;;;;;2.98;73.35;98966.31;6052791;23;20052;-80
2022/11/23 02:23:09;;;;;;;25.45;11.23;;;;;;;3.04;72.62;98963.78;6076633;23;20050;-80
2022/11/23 02:25:44;;;;;;;6.32;3.38;;;;;;;3.05;73.63;98969.78;6073210;23;20468;-78
2022/11/23 02:28:17;;;;;;;3.92;2.25;;;;;;;3.06;73.35;98966.38;6048176;23;20418;-78
2022/11/23 02:30:47;;;;;;;4.07;2.00;;;;;;;3.11;73.22;98962.13;6096881;23;20464;-80
2022/11/23 02:33:13;;;;;;;2.78;1.83;;;;;;;3.08;72.56;98967.25;6072587;23;20077;-81
2022/11/23 02:35:52;;;;;;;2.35;1.52;;;;;;;3.05;72.45;98969.78;6072866;23;20085;-82
2022/11/23 02:38:19;;;;;;;2.15;1.75;;;;;;;3.01;73.08;98974.91;6071263;23;20372;-82
2022/11/23 02:40:45;;;;;;;3.45;1.90;;;;;;;2.99;73.21;98955.19;6048536;23;20087;-78
2022/11/23 02:43:12;;;;;;;5.55;2.67;;;;;;;3.03;73.06;98950.91;6047959;23;20396;-79
2022/11/23 02:45:45;;;;;;;5.35;2.83;;;;;;;3.12;72.91;98964.69;6047742;23;20013;-79
2022/11/23 02:48:11;;;;;;;5.43;3.13;;;;;;;2.96;72.79;98930.31;6096749;23;20078;-80
2022/11/23 02:50:37;;;;;;;3.95;2.10;;;;;;;2.94;71.72;98962.84;6072276;23;20097;-79
2022/11/23 02:53:05;;;;;;;5.43;2.88;;;;;;;2.79;73.16;98947.28;6054431;23;20794;-78
2022/11/23 02:55:31;;;;;;;4.15;2.53;;;;;;;2.99;72.70;98968.88;6072464;23;20022;-78
2022/11/23 02:58:01;;;;;;;5.22;2.40;;;;;;;2.94;72.82;98973.13;6047803;23;20026;-80
2022/11/23 03:00:28;;;;;;;5.13;2.42;;;;;;;2.62;71.75;98960.84;6098083;23;20105;-79
2022/11/23 03:02:54;;;;;;;4.75;2.67;;;;;;;2.53;73.22;98955.63;6097788;23;20472;-81
2022/11/23 03:05:21;;;;;;;4.93;2.75;;;;;;;2.64;73.44;98948.03;6097799;23;20448;-80
2022/11/23 03:07:50;;;;;;;5.40;2.63;;;;;;;2.89;72.69;98963.66;6072729;23;20594;-78
2022/11/23 03:10:18;;;;;;;5.55;2.88;;;;;;;3.05;72.82;98977.50;6048803;23;20026;-79
2022/11/23 03:12:46;;;;;;;5.40;2.70;;;;;;;3.14;72.95;98967.31;6049373;23;20022;-79
2022/11/23 03:15:13;;;;;;;4.57;2.47;;;;;;;3.27;72.75;98976.81;6043361;23;20046;-80
2022/11/23 03:17:39;;;;;;;4.45;2.35;;;;;;;3.35;73.12;98974.31;6022973;23;20465;-77
2022/11/23 03:20:09;;;;;;;5.53;2.72;;;;;;;3.28;72.92;98952.81;6048595;23;20019;-78
2022/11/23 03:22:38;;;;;;;4.78;2.60;;;;;;;3.35;72.90;98958.03;6023978;23;20488;-81
2022/11/23 03:25:05;;;;;;;3.50;2.38;;;;;;;3.46;72.87;98971.81;6069946;23;20049;-77
2022/11/23 03:27:33;;;;;;;2.97;2.00;;;;;;;3.51;72.98;98983.00;6045960;23;20367;-79
2022/11/23 03:30:00;;;;;;;3.10;2.15;;;;;;;3.56;72.11;98978.75;6068366;23;20110;-78
2022/11/23 03:32:30;;;;;;;3.00;2.00;;;;;;;3.52;72.06;98968.44;6045277;23;20038;-82
2022/11/23 03:34:56;;;;;;;2.47;1.83;;;;;;;3.51;72.37;98956.41;6069197;23;20077;-82
2022/11/23 03:37:24;;;;;;;3.75;1.60;;;;;;;3.41;72.35;98934.91;5997537;23;20072;-77
2022/11/23 03:39:50;;;;;;;2.85;1.75;;;;;;;3.48;72.44;98977.81;6072039;23;20022;-82
2022/11/23 03:42:48;;;;;;;2.80;1.83;;;;;;;3.41;71.90;98969.22;6017202;23;20019;-82
2022/11/23 03:45:15;;;;;;;5.53;2.80;;;;;;;3.46;71.92;98980.41;6010430;23;20015;-80
2022/11/23 03:47:41;;;;;;;5.78;2.65;;;;;;;3.27;71.86;98950.25;6086109;23;20091;-81
2022/11/23 03:50:08;;;;;;;3.40;2.05;;;;;;;3.22;71.96;98931.34;6051752;23;20029;-79
2022/11/23 03:52:36;;;;;;;3.22;1.95;;;;;;;3.39;71.96;98959.78;6047730;23;20023;-78
2022/11/23 03:55:02;;;;;;;2.40;1.65;;;;;;;3.47;71.87;98958.97;6071031;23;20110;-82
2022/11/23 03:57:29;;;;;;;2.50;1.77;;;;;;;3.42;72.05;98965.78;6071427;23;20026;-79
2022/11/23 03:59:55;;;;;;;3.83;2.47;;;;;;;3.50;71.42;98962.41;6046384;23;20019;-81
2022/11/23 04:02:21;;;;;;;5.78;4.10;;;;;;;3.56;72.07;98967.56;6045989;23;20424;-80
2022/11/23 04:04:58;;;;;;;7.50;4.35;;;;;;;3.28;70.89;98936.56;6068949;23;20019;-80
2022/11/23 04:07:47;;;;;;;7.43;4.75;;;;;;;3.09;71.79;98930.41;6077626;23;20520;-79
2022/11/23 04:10:18;;;;;;;8.23;5.38;;;;;;;3.14;71.27;98929.59;6050521;23;20778;-78
2022/11/23 04:13:02;;;;;;;9.57;6.10;;;;;;;3.42;72.30;98968.34;6079217;23;20019;-80
2022/11/23 04:15:30;;;;;;;8.45;5.40;;;;;;;3.37;71.85;98946.03;6084387;23;20005;-81
2022/11/23 04:17:57;;;;;;;9.45;5.90;;;;;;;3.36;71.57;98958.03;6069249;23;20003;-81
2022/11/23 04:20:23;;;;;;;8.85;5.40;;;;;;;3.41;71.57;98951.19;6047598;23;20087;-80
2022/11/23 04:22:50;;;;;;;11.60;5.90;;;;;;;3.45;71.72;98964.94;6022621;23;20022;-79
2022/11/23 04:25:16;;;;;;;8.95;5.47;;;;;;;3.49;71.62;98970.97;6045059;23;20019;-77
2022/11/23 04:27:43;;;;;;;8.60;5.32;;;;;;;3.40;71.52;98970.06;6046495;23;20091;-78
2022/11/23 04:30:10;;;;;;;9.20;4.93;;;;;;;3.53;71.67;98993.31;6020573;23;20019;-78
2022/11/23 04:32:36;;;;;;;7.43;4.63;;;;;;;3.35;72.19;98945.16;6046176;23;20074;-80
2022/11/23 04:35:04;;;;;;;6.47;4.15;;;;;;;3.68;71.38;98989.94;6068706;23;20019;-79
2022/11/23 04:37:30;;;;;;;7.80;4.40;;;;;;;3.67;71.75;98990.78;6044548;23;20023;-78
2022/11/23 04:39:56;;;;;;;8.32;4.00;;;;;;;3.62;71.57;98983.06;6067895;23;20014;-78
2022/11/23 04:42:33;;;;;;;7.05;3.50;;;;;;;3.70;71.43;98990.81;6045864;23;20096;-77
2022/11/23 04:45:01;;;;;;;6.38;3.25;;;;;;;3.66;71.53;98986.50;6070048;23;20014;-80
2022/11/23 04:47:30;;;;;;;4.90;3.15;;;;;;;3.52;71.15;98983.88;6046840;23;20018;-79
2022/11/23 04:50:01;;;;;;;4.57;2.50;;;;;;;2.98;71.43;98902.88;6068643;23;20480;-79
2022/11/23 04:52:29;;;;;;;6.07;2.80;;;;;;;3.39;70.88;98985.50;5999290;23;20019;-81
2022/11/23 04:54:56;;;;;;;4.82;2.70;;;;;;;2.92;70.96;98925.13;6020324;23;20014;-80
2022/11/23 04:57:23;;;;;;;4.43;2.47;;;;;;;3.09;71.31;98932.97;6046180;23;20030;-80
2022/11/23 04:59:51;;;;;;;3.80;2.33;;;;;;;3.43;71.44;98994.94;5997810;23;20357;-77
2022/11/23 05:02:17;;;;;;;3.58;2.30;;;;;;;3.45;71.76;99000.94;6046092;23;20102;-80
2022/11/23 05:04:43;;;;;;;5.97;3.15;;;;;;;3.33;71.98;98970.00;6044126;23;20022;-79
2022/11/23 05:07:10;;;;;;;5.35;2.80;;;;;;;3.43;71.67;98988.09;6020806;23;20023;-77
2022/11/23 05:09:38;;;;;;;5.40;3.15;;;;;;;3.40;72.01;98979.50;6044298;23;20023;-78
2022/11/23 05:12:12;;;;;;;4.72;2.95;;;;;;;3.52;71.15;99001.88;6020993;23;20337;-79
2022/11/23 05:14:39;;;;;;;5.18;2.78;;;;;;;3.53;71.14;98996.72;6077829;23;20116;-77
2022/11/23 05:17:07;;;;;;;3.40;2.40;;;;;;;3.61;71.48;98997.66;6061915;23;20032;-81
2022/11/23 05:19:33;;;;;;;5.38;2.88;;;;;;;3.60;71.15;99000.19;6075583;23;20024;-82
2022/11/23 05:21:59;;;;;;;6.50;2.80;;;;;;;3.38;71.10;98965.75;6053242;23;20022;-77
2022/11/23 05:24:26;;;;;;;4.80;2.63;;;;;;;3.40;71.28;98977.78;6078659;23;20045;-82
2022/11/23 05:27:03;;;;;;;5.53;3.58;;;;;;;3.28;71.76;98968.25;6073026;23;20030;-81
2022/11/23 05:29:29;;;;;;;9.43;4.10;;;;;;;3.21;71.40;98950.19;6098728;23;20373;-80
2022/11/23 05:31:55;;;;;;;11.05;4.38;;;;;;;3.37;70.01;98982.03;6075775;23;20042;-79
2022/11/23 05:34:21;;;;;;;7.18;4.00;;;;;;;3.44;71.00;99007.81;6054048;23;20018;-78
2022/11/23 05:36:48;;;;;;;9.40;4.00;;;;;;;3.46;70.56;99002.66;6029657;23;20042;-78
2022/11/23 05:39:15;;;;;;;6.63;3.35;;;;;;;3.48;70.74;99003.53;6077911;23;20015;-79
2022/11/23 05:41:41;;;;;;;6.03;3.50;;;;;;;3.50;71.41;99001.84;6103777;23;20018;-82
2022/11/23 05:44:20;;;;;;;5.85;3.47;;;;;;;3.46;70.49;98998.41;6078134;23;20022;-78
2022/11/23 05:46:46;;;;;;;7.80;4.07;;;;;;;3.54;70.51;99003.59;6097911;23;20469;-79
2022/11/23 05:49:13;;;;;;;5.75;3.47;;;;;;;3.60;71.25;99005.34;6099883;23;20986;-79
2022/11/23 05:51:40;;;;;;;8.32;4.07;;;;;;;3.56;70.83;99012.19;6074777;23;20025;-80
2022/11/23 05:54:06;;;;;;;5.95;3.22;;;;;;;3.51;71.44;99005.28;6074062;23;20106;-79
2022/11/23 05:56:41;;;;;;;7.93;4.47;;;;;;;3.55;69.55;99007.00;6098489;23;20022;-81
2022/11/23 05:59:21;;;;;;;6.43;3.58;;;;;;;3.30;70.30;98982.00;6096936;23;20074;-79
2022/11/23 06:01:53;;;;;;;7.25;3.40;;;;;;;3.32;70.39;98974.28;6074045;23;20023;-83
2022/11/23 06:04:28;;;;;;;6.35;3.72;;;;;;;3.39;70.27;98994.06;6056327;23;20022;-79
2022/11/23 06:06:59;;;;;;;6.03;3.58;;;;;;;3.57;71.82;99005.31;6080781;23;20044;-78
2022/11/23 06:09:27;;;;;;;5.07;3.05;;;;;;;3.49;71.01;98982.13;6080108;23;20018;-80
2022/11/23 06:11:58;;;;;;;7.18;3.33;;;;;;;3.54;69.84;99006.16;6074396;23;20413;-79
2022/11/23 06:14:23;;;;;;;5.38;3.05;;;;;;;3.54;71.02;99021.59;6050382;23;20018;-79
2022/11/23 06:16:50;;;;;;;5.85;2.92;;;;;;;3.60;70.89;99028.50;6073631;23;20838;-80
2022/11/23 06:19:34;;;;;;;5.60;3.38;;;;;;;3.44;70.65;98992.38;6077505;23;20012;-78
2022/11/23 06:22:01;;;;;;;5.30;3.00;;;;;;;3.60;70.49;99020.78;6100867;23;20034;-79
2022/11/23 06:24:31;;;;;;;4.53;3.17;;;;;;;3.54;70.82;99013.88;6077237;23;20026;-78
2022/11/23 06:27:16;;;;;;;5.15;3.35;;;;;;;3.55;70.23;99012.16;6081942;23;20060;-78
2022/11/23 06:29:43;;;;;;;5.72;3.55;;;;;;;3.34;70.53;98972.56;6074864;23;20050;-79
2022/11/23 06:32:10;;;;;;;5.57;3.38;;;;;;;3.49;70.18;99009.56;6075828;23;20026;-81
2022/11/23 06:34:36;;;;;;;5.32;3.38;;;;;;;3.33;70.32;99000.88;6075626;23;20044;-80
2022/11/23 06:37:02;;;;;;;6.03;3.20;;;;;;;3.37;70.54;99005.19;6101099;23;20018;-80
2022/11/23 06:39:28;;;;;;;7.18;4.18;;;;;;;3.36;70.14;99006.88;6099267;23;20037;-78
2022/11/23 06:41:56;;;;;;;8.43;4.22;;;;;;;3.41;69.85;99009.50;6077738;23;20337;-80
2022/11/23 06:44:22;;;;;;;10.07;4.95;;;;;;;3.44;70.52;99015.53;6112775;23;20037;-76
2022/11/23 06:46:49;;;;;;;8.18;4.40;;;;;;;3.56;71.20;99014.75;6113924;23;20018;-78
2022/11/23 06:49:16;;;;;;;8.32;4.35;;;;;;;3.58;70.80;99023.34;6098914;23;20018;-78
2022/11/23 06:51:45;;;;;;;9.18;4.65;;;;;;;3.63;70.71;99019.97;6073357;23;20022;-78
2022/11/23 06:54:13;;;;;;;7.53;5.15;;;;;;;3.65;70.56;99011.38;6071678;23;20444;-80
2022/11/23 06:56:40;;;;;;;9.65;4.90;;;;;;;3.67;70.74;99019.97;6072303;23;20025;-82
2022/11/23 06:59:07;;;;;;;8.93;4.40;;;;;;;3.64;70.54;99011.38;6048990;23;20097;-80
2022/11/23 07:01:33;;;;;;;8.13;4.30;;;;;;;3.56;70.39;99001.03;6048594;23;20018;-82
2022/11/23 07:04:04;;;;;;;10.97;4.40;;;;;;;3.54;70.46;99010.44;6072961;23;20022;-79
2022/11/23 07:06:39;;;;;;;7.60;4.50;;;;;;;3.67;70.89;99022.56;6025364;23;20566;-82
2022/11/23 07:09:08;;;;;;;14.75;5.75;;;;;;;3.69;70.46;99010.56;6096531;23;20028;-79
2022/11/23 07:11:44;;;;;;;10.98;5.10;;;;;;;3.59;70.54;99007.06;6096261;23;20018;-80
2022/11/23 07:14:11;;;;;;;9.52;4.85;;;;;;;3.49;70.45;98979.53;6075252;23;20026;-80
2022/11/23 07:16:41;;;;;;;9.40;5.00;;;;;;;3.66;70.24;99002.81;6074826;23;20401;-83
2022/11/23 07:19:07;;;;;;;10.45;5.28;;;;;;;3.73;70.20;99014.00;6074110;23;20018;-81
2022/11/23 07:21:33;;;;;;;9.95;5.07;;;;;;;3.77;69.93;99036.34;6077971;23;20025;-78
2022/11/23 07:24:00;;;;;;;10.73;5.97;;;;;;;3.65;70.01;99039.69;6107500;23;20022;-82
2022/11/23 07:26:27;;;;;;;10.32;4.85;;;;;;;3.77;70.05;99044.91;6105992;23;20445;-85
2022/11/23 07:28:53;;;;;;;9.45;5.63;;;;;;;3.66;70.14;99019.94;6104452;23;20014;-85
2022/11/23 07:31:19;;;;;;;7.95;4.72;;;;;;;3.43;70.47;98972.66;6079947;23;20022;-83
2022/11/23 07:33:47;;;;;;;9.45;4.70;;;;;;;3.84;70.24;99047.53;6080895;23;20022;-86
2022/11/23 07:36:14;;;;;;;9.52;5.22;;;;;;;3.30;70.00;98963.13;6077454;23;20125;-84
2022/11/23 07:38:42;;;;;;;9.43;5.20;;;;;;;3.77;70.12;99033.75;6076887;23;20018;-82
2022/11/23 07:41:11;;;;;;;7.00;4.15;;;;;;;3.05;70.45;98920.94;6104288;23;20029;-82
2022/11/23 07:44:01;;;;;;;8.77;4.90;;;;;;;3.42;69.38;98964.94;6053720;23;20025;-82
2022/11/23 07:46:27;;;;;;;9.20;4.60;;;;;;;3.63;69.82;99002.78;6082076;23;20018;-82
2022/11/23 07:48:58;;;;;;;7.38;4.90;;;;;;;3.85;70.05;99052.72;6080730;23;20025;-81
2022/11/23 07:51:24;;;;;;;8.40;4.93;;;;;;;3.84;70.04;99035.53;6103997;23;20018;-79
2022/11/23 07:53:50;;;;;;;8.85;4.75;;;;;;;3.80;69.33;99049.22;6109062;23;20025;-84
2022/11/23 07:56:16;;;;;;;8.00;5.10;;;;;;;3.75;69.33;99040.59;6051768;23;20388;-81
2022/11/23 07:58:43;;;;;;;8.45;5.47;;;;;;;2.64;69.35;98851.25;6077013;23;20093;-83
2022/11/23 08:01:20;;;;;;;9.68;5.00;;;;;;;3.77;70.30;99028.63;6052772;23;20052;-83
2022/11/23 08:03:47;;;;;;;6.57;4.30;;;;;;;2.67;69.97;98841.00;6104937;23;20022;-82
2022/11/23 08:06:14;;;;;;;8.07;4.50;;;;;;;2.46;69.15;98825.44;6081853;23;20048;-84
2022/11/23 08:08:41;;;;;;;9.25;4.18;;;;;;;3.04;69.49;98937.22;6059205;23;20026;-83
2022/11/23 08:11:08;;;;;;;7.28;4.43;;;;;;;3.64;69.50;99029.41;6085941;23;20034;-82
2022/11/23 08:13:36;;;;;;;8.77;4.80;;;;;;;3.27;69.82;98958.81;6072189;23;20019;-81
2022/11/23 08:16:04;;;;;;;7.80;4.65;;;;;;;3.49;69.31;98996.69;6124127;23;20026;-80
2022/11/23 08:18:34;;;;;;;;;;;;;;;3.74;68.68;99051.75;6095084;23;20018;-81
2022/11/23 08:21:00;;;;;;;6.85;4.13;;;;;;;3.09;69.36;98943.25;6109941;23;19964;-83
2022/11/23 08:23:29;;;;;;;7.55;4.47;;;;;;;2.60;69.11;98864.91;6060090;23;20104;-84
2022/11/23 08:26:05;;;;;;;8.05;4.57;;;;;;;3.13;69.21;98937.28;6059117;23;20022;-82
2022/11/23 08:28:33;;;;;;;7.70;4.38;;;;;;;3.84;69.16;99058.69;6104181;23;20104;-85
2022/11/23 08:31:10;;;;;;;6.63;4.30;;;;;;;3.72;69.59;99035.44;6076693;23;20081;-81
2022/11/23 08:33:39;;;;;;;10.30;4.93;;;;;;;3.41;69.02;98978.66;6076093;23;20022;-83
2022/11/23 08:36:07;;;;;;;7.07;4.13;;;;;;;2.95;69.58;98908.03;6052725;23;20015;-83
2022/11/23 08:38:45;;;;;;;6.85;4.15;;;;;;;3.20;69.33;98954.47;6077892;23;20045;-80
2022/11/23 08:41:11;;;;;;;7.85;4.05;;;;;;;2.69;69.35;98862.44;6053046;23;20037;-81
2022/11/23 08:43:43;;;;;;;9.02;4.63;;;;;;;3.69;69.29;99022.56;6076186;23;20022;-83
2022/11/23 08:46:10;;;;;;;8.77;4.40;;;;;;;3.14;69.08;98944.16;6054072;23;20360;-82
2022/11/23 08:48:36;;;;;;;9.15;4.40;;;;;;;3.88;68.73;99063.00;6087245;23;20018;-82
2022/11/23 08:51:03;;;;;;;8.38;4.90;;;;;;;2.98;68.31;98933.75;6106535;23;20352;-84
2022/11/23 08:53:31;;;;;;;9.25;4.53;;;;;;;2.41;68.89;98825.41;6078269;23;20117;-85
2022/11/23 08:56:02;;;;;;;7.93;4.47;;;;;;;3.03;69.04;98938.94;6103261;23;20416;-85
2022/11/23 08:58:32;;;;;;;8.27;4.72;;;;;;;2.41;69.00;98818.53;6102536;23;20460;-84
2022/11/23 09:01:00;;;;;;;8.13;4.00;;;;;;;3.63;69.40;99014.81;6102285;23;20101;-84
2022/11/23 09:03:26;;;;;;;5.80;3.88;;;;;;;3.60;68.51;99013.06;6108561;23;20025;-83
2022/11/23 09:06:07;;;;;;;5.15;3.42;;;;;;;2.73;69.09;98854.75;6089094;23;20022;-81
2022/11/23 09:08:47;;;;;;;5.53;3.75;;;;;;;3.92;68.86;99051.03;6113268;23;20014;-79
2022/11/23 09:11:17;;;;;;;8.15;4.18;;;;;;;3.23;68.59;98935.66;6091175;23;20029;-85
2022/11/23 09:14:13;;;;;;;7.25;3.67;;;;;;;3.80;68.44;99035.50;6101996;23;20326;-84
2022/11/23 09:16:56;;;;;;;8.13;4.03;;;;;;;3.89;68.79;99048.44;6076275;23;20019;-83
2022/11/23 09:19:31;;;;;;;6.00;3.92;;;;;;;3.64;69.08;99006.25;6080174;23;20018;-85
2022/11/23 09:21:57;;;;;;;6.43;3.60;;;;;;;3.50;67.43;99003.56;6034216;23;20022;-84
2022/11/23 09:24:27;;;;;;;5.30;3.55;;;;;;;3.23;68.61;98944.22;6062955;23;20387;-82
2022/11/23 09:27:06;;;;;;;6.13;3.92;;;;;;;3.80;68.73;99018.34;6059907;23;20430;-84
2022/11/23 09:29:32;;;;;;;5.70;3.47;;;;;;;3.44;68.38;98951.22;6074515;23;20465;-81
2022/11/23 09:32:04;;;;;;;6.75;4.72;;;;;;;3.10;68.71;98875.56;6098338;23;20030;-82
2022/11/23 09:34:30;;;;;;;5.78;3.35;;;;;;;3.86;68.43;99002.06;6026808;23;20022;-83
2022/11/23 09:37:03;;;;;;;5.50;3.45;;;;;;;3.09;67.75;98866.13;6053866;23;20066;-82
2022/11/23 09:39:47;;;;;;;3.90;2.70;;;;;;;3.47;68.33;98940.97;6099594;23;20010;-85
2022/11/23 09:42:36;;;;;;;4.68;2.75;;;;;;;4.19;68.54;99052.88;6088750;23;20006;-84
2022/11/23 09:45:25;;;;;;;4.13;2.90;;;;;;;4.20;68.27;99053.72;6071176;23;20027;-82
2022/11/23 09:48:24;;;;;;;4.60;3.20;;;;;;;3.61;67.82;98961.63;6063097;23;20369;-82
2022/11/23 09:51:08;;;;;;;6.10;2.85;;;;;;;4.26;68.38;99069.22;6074763;23;20107;-83
2022/11/23 09:53:49;;;;;;;4.80;2.67;;;;;;;4.08;67.51;99033.97;6073791;23;20025;-84
2022/11/23 09:56:26;;;;;;;4.57;3.15;;;;;;;3.03;68.06;98878.94;6096491;23;20023;-83
2022/11/23 09:59:40;;;;;;;4.07;3.05;;;;;;;4.20;68.53;99070.06;6048930;23;20306;-84
2022/11/23 10:02:52;;;;;;;3.67;2.50;;;;;;;3.98;67.74;99007.28;6049173;23;20084;-83
2022/11/23 10:06:52;;;;;;;;;;;;;;;;;;;;;
2022/11/23 10:10:17;;;;;;;4.57;3.23;;;;;;;4.07;67.54;99073.44;6074625;23;20046;-82
2022/11/23 10:13:09;;;;;;;4.63;2.90;;;;;;;3.99;68.20;99044.19;6074012;23;20122;-81
2022/11/23 10:16:35;;;;;;;6.85;3.63;;;;;;;3.97;68.00;99045.91;6059929;23;20018;-86
2022/11/23 10:19:23;;;;;;;5.75;3.20;;;;;;;3.78;67.94;99050.94;6060014;23;20018;-83
2022/11/23 10:22:22;;;;;;;8.27;3.58;;;;;;;3.09;68.36;98933.81;6086239;23;20089;-80
2022/11/23 10:25:13;;;;;;;4.78;3.13;;;;;;;2.93;68.59;98899.44;6052565;23;20532;-84
2022/11/23 10:27:48;;;;;;;4.97;3.38;;;;;;;3.17;68.57;98929.59;6054966;23;20101;-85
2022/11/23 10:30:33;;;;;;;5.57;3.65;;;;;;;2.84;67.99;98882.25;6106734;23;20077;-84
2022/11/23 10:33:30;;;;;;;7.00;3.90;;;;;;;3.96;67.38;99059.63;6034894;23;20081;-81
2022/11/23 10:35:58;;;;;;;5.95;4.13;;;;;;;2.88;67.77;98895.97;6055780;23;20010;-83
2022/11/23 10:38:26;;;;;;;8.05;4.38;;;;;;;3.89;66.68;99057.00;6077198;23;20014;-85
2022/11/23 10:41:11;;;;;;;6.60;4.30;;;;;;;2.79;68.64;98888.19;6076910;23;20029;-83
2022/11/23 10:43:54;;;;;;;;;;;;;;;3.97;68.44;99056.19;6080164;23;20025;-84
2022/11/23 10:46:39;;;;;;;7.05;4.22;;;;;;;3.25;68.13;98939.94;6081566;23;20016;-84
2022/11/23 10:49:16;;;;;;;7.57;4.53;;;;;;;4.08;67.91;99057.13;6053445;23;20461;-83
2022/11/23 10:52:02;;;;;;;7.47;4.32;;;;;;;4.00;67.71;99051.06;6054809;23;20023;-84
2022/11/23 10:54:57;;;;;;;7.63;4.47;;;;;;;2.95;68.30;98872.06;6031008;23;20026;-82
2022/11/23 10:57:44;;;;;;;7.45;5.35;;;;;;;2.94;68.22;98880.63;6078055;23;20014;-82
2022/11/23 11:00:15;;;;;;;9.18;5.93;;;;;;;4.00;67.36;99069.94;6103031;23;20468;-83
2022/11/23 11:02:50;;;;;;;11.07;6.70;;;;;;;4.03;68.20;99069.97;6087616;23;20014;-79
2022/11/23 11:05:32;;;;;;;13.52;7.10;;;;;;;3.99;66.63;99069.94;6084211;23;20049;-83
2022/11/23 11:08:23;;;;;;;13.68;7.22;;;;;;;3.97;67.85;99043.31;6083006;23;20101;-82
2022/11/23 11:11:02;;;;;;;9.63;5.65;;;;;;;4.01;68.17;99048.47;6089098;23;20018;-82
2022/11/23 11:13:47;;;;;;;10.85;5.75;;;;;;;4.14;67.33;99071.75;6113428;23;20087;-82
2022/11/23 11:16:35;;;;;;;9.40;5.80;;;;;;;2.91;67.43;98887.41;6083614;23;20014;-81
2022/11/23 11:19:31;;;;;;;10.70;5.78;;;;;;;4.08;67.52;99082.88;6080702;23;20094;-83
2022/11/23 11:22:28;;;;;;;8.38;5.90;;;;;;;3.02;66.89;98911.50;6079436;23;20029;-82
2022/11/23 11:25:30;;;;;;;10.82;5.80;;;;;;;3.06;67.54;98914.94;6052581;23;20027;-85
2022/11/23 11:28:05;;;;;;;11.32;6.55;;;;;;;2.90;67.05;98927.69;6058546;23;20025;-81
2022/11/23 11:30:49;;;;;;;;;;;;;;;3.90;67.44;99081.88;6047241;23;20015;-85
2022/11/23 11:33:29;;;;;;;11.65;7.22;;;;;;;3.68;67.88;99069.72;6069786;23;19979;-82
2022/11/23 11:35:59;;;;;;;12.68;7.20;;;;;;;3.28;67.75;98990.56;6039910;23;20079;-82
2022/11/23 11:38:36;;;;;;;9.90;6.10;;;;;;;3.83;67.78;99097.28;6051492;23;20022;-85
2022/11/23 11:41:08;;;;;;;7.32;5.40;;;;;;;3.42;66.67;99042.94;6049200;23;20095;-83
2022/11/23 11:43:41;;;;;;;10.30;5.07;;;;;;;3.63;67.65;99092.84;6025478;23;20022;-82
2022/11/23 11:46:21;;;;;;;5.88;4.30;;;;;;;2.56;67.19;98920.56;6033851;23;20026;-83
2022/11/23 11:49:05;;;;;;;7.60;5.10;;;;;;;3.82;67.34;99113.56;6057731;23;20044;-83
2022/11/23 11:51:43;;;;;;;7.78;5.68;;;;;;;3.28;66.97;99035.13;6036899;23;20039;-86
2022/11/23 11:54:35;;;;;;;9.43;6.25;;;;;;;3.21;67.14;99022.19;6062722;23;20015;-85
2022/11/23 11:57:27;;;;;;;9.32;5.70;;;;;;;3.26;67.58;99047.09;6038218;23;20066;-82
2022/11/23 11:59:57;;;;;;;9.13;6.22;;;;;;;3.29;67.46;99057.41;6062682;23;20015;-82
2022/11/23 12:02:55;;;;;;;7.82;5.65;;;;;;;3.20;67.28;99049.59;6066339;23;20007;-81
2022/11/23 12:05:54;;;;;;;8.93;5.57;;;;;;;3.80;68.33;99144.47;6040324;23;20023;-84
2022/11/23 12:08:40;;;;;;;7.35;5.10;;;;;;;3.06;67.59;99026.38;6090223;23;20286;-83
2022/11/23 12:11:12;;;;;;;8.90;6.03;;;;;;;3.24;67.97;99069.38;6063547;23;20018;-81